createdAt,value
2022-12-28T00:01:27.310Z,8.70
2022-12-28T00:04:02.018Z,8.58
2022-12-28T00:06:29.020Z,8.82
2022-12-28T00:08:57.548Z,8.73
2022-12-28T00:11:30.750Z,8.62
2022-12-28T00:14:01.672Z,8.70
2022-12-28T00:16:31.578Z,8.57
2022-12-28T00:19:00.503Z,8.62
2022-12-28T00:21:28.248Z,8.69
2022-12-28T00:23:58.028Z,8.75
2022-12-28T00:26:26.805Z,8.80
2022-12-28T00:28:58.308Z,8.75
2022-12-28T00:31:28.768Z,8.43
2022-12-28T00:33:55.849Z,8.61
2022-12-28T00:36:22.469Z,8.78
2022-12-28T00:38:49.176Z,8.79
2022-12-28T00:41:18.730Z,8.67
2022-12-28T00:43:46.168Z,8.77
2022-12-28T00:46:13.351Z,8.76
2022-12-28T00:48:40.403Z,8.67
2022-12-28T00:51:10.966Z,8.62
2022-12-28T00:53:38.855Z,8.50
2022-12-28T00:56:08.089Z,8.79
2022-12-28T00:58:35.002Z,8.77
2022-12-28T01:01:03.158Z,8.72
2022-12-28T01:03:30.763Z,8.57
2022-12-28T01:06:00.400Z,8.68
2022-12-28T01:08:27.153Z,8.83
2022-12-28T01:10:53.817Z,8.65
2022-12-28T01:13:23.988Z,8.57
2022-12-28T01:15:51.126Z,8.66
2022-12-28T01:18:19.429Z,8.54
2022-12-28T01:20:49.168Z,8.41
2022-12-28T01:23:15.907Z,8.49
2022-12-28T01:25:42.482Z,8.46
2022-12-28T01:28:09.176Z,8.64
2022-12-28T01:30:38.918Z,8.63
2022-12-28T01:33:06.032Z,8.67
2022-12-28T01:35:32.605Z,8.10
2022-12-28T01:37:59.527Z,8.71
2022-12-28T01:40:26.380Z,8.64
2022-12-28T01:42:53.033Z,8.59
2022-12-28T01:45:21.928Z,8.68
2022-12-28T01:47:53.885Z,8.32
2022-12-28T01:50:27.021Z,8.62
2022-12-28T01:53:00.839Z,8.62
2022-12-28T01:55:36.397Z,8.68
2022-12-28T01:58:11.352Z,8.75
2022-12-28T02:00:41.039Z,8.45
2022-12-28T02:03:11.586Z,8.42
2022-12-28T02:05:42.425Z,8.16
2022-12-28T02:08:10.932Z,8.55
2022-12-28T02:10:44.492Z,8.37
2022-12-28T02:13:15.196Z,8.80
2022-12-28T02:15:42.255Z,8.52
2022-12-28T02:18:09.795Z,8.53
2022-12-28T02:20:59.746Z,8.71
2022-12-28T02:23:49.274Z,8.65
2022-12-28T02:26:45.425Z,8.61
2022-12-28T02:29:37.376Z,8.65
2022-12-28T02:32:15.993Z,8.67
2022-12-28T02:34:54.374Z,8.90
2022-12-28T02:37:24.541Z,8.71
2022-12-28T02:39:58.499Z,8.87
2022-12-28T02:42:29.407Z,9.07
2022-12-28T02:45:20.458Z,9.02
2022-12-28T02:48:09.968Z,8.91
2022-12-28T02:51:17.080Z,9.06
2022-12-28T02:54:05.437Z,9.01
2022-12-28T02:56:44.900Z,8.87
2022-12-28T02:59:33.320Z,9.13
2022-12-28T03:02:12.423Z,8.87
2022-12-28T03:05:05.618Z,8.71
2022-12-28T03:08:03.679Z,8.93
2022-12-28T03:10:40.859Z,9.05
2022-12-28T03:13:33.653Z,9.03
2022-12-28T03:16:09.207Z,8.80
2022-12-28T03:19:00.515Z,8.62
2022-12-28T03:21:48.647Z,8.62
2022-12-28T03:24:35.646Z,8.43
2022-12-28T03:27:27.363Z,8.62
2022-12-28T03:30:25.732Z,8.62
2022-12-28T03:32:52.728Z,8.46
2022-12-28T03:35:28.673Z,8.55
2022-12-28T03:38:01.067Z,8.40
2022-12-28T03:40:52.031Z,8.59
2022-12-28T03:43:43.301Z,8.46
2022-12-28T03:46:29.635Z,8.70
2022-12-28T03:49:01.725Z,8.77
2022-12-28T03:51:35.291Z,8.79
2022-12-28T03:54:14.808Z,8.58
2022-12-28T03:56:49.350Z,8.51
2022-12-28T03:59:17.013Z,8.64
2022-12-28T04:01:49.020Z,8.82
2022-12-28T04:04:17.958Z,8.68
2022-12-28T04:06:46.155Z,8.24
2022-12-28T04:09:13.156Z,8.29
2022-12-28T04:11:43.838Z,8.39
2022-12-28T04:14:18.321Z,8.61
2022-12-28T04:16:45.048Z,8.27
2022-12-28T04:19:15.563Z,8.43
2022-12-28T04:21:42.253Z,8.20
2022-12-28T04:24:09.620Z,8.36
2022-12-28T04:26:37.171Z,8.37
2022-12-28T04:29:04.081Z,8.34
2022-12-28T04:31:31.376Z,8.15
2022-12-28T04:34:07.995Z,8.19
2022-12-28T04:36:39.726Z,8.03
2022-12-28T04:39:11.149Z,8.16
2022-12-28T04:41:37.788Z,8.11
2022-12-28T04:44:04.503Z,7.87
2022-12-28T04:46:31.167Z,7.89
2022-12-28T04:48:57.812Z,8.05
2022-12-28T04:51:29.674Z,8.16
2022-12-28T04:53:57.401Z,7.96
2022-12-28T04:56:30.373Z,7.85
2022-12-28T04:58:59.630Z,7.80
2022-12-28T05:01:27.313Z,7.93
2022-12-28T05:03:58.079Z,7.90
2022-12-28T05:06:30.532Z,7.73
2022-12-28T05:08:58.195Z,8.00
2022-12-28T05:11:29.340Z,7.51
2022-12-28T05:13:57.207Z,7.51
2022-12-28T05:16:26.762Z,7.95
2022-12-28T05:18:54.731Z,7.88
2022-12-28T05:21:23.512Z,7.66
2022-12-28T05:23:51.027Z,7.70
2022-12-28T05:26:21.105Z,7.76
2022-12-28T05:28:48.485Z,7.52
2022-12-28T05:31:18.885Z,7.62
2022-12-28T05:33:46.106Z,7.91
2022-12-28T05:36:18.476Z,7.52
2022-12-28T05:38:45.564Z,7.93
2022-12-28T05:41:19.113Z,8.01
2022-12-28T05:43:46.485Z,8.07
2022-12-28T05:46:21.416Z,7.95
2022-12-28T05:48:48.565Z,7.92
2022-12-28T05:51:20.418Z,7.85
2022-12-28T05:53:50.145Z,8.09
2022-12-28T05:56:23.129Z,7.90
2022-12-28T05:58:55.762Z,8.33
2022-12-28T06:01:24.724Z,8.03
2022-12-28T06:03:58.346Z,8.07
2022-12-28T06:06:26.080Z,8.25
2022-12-28T06:08:52.880Z,7.91
2022-12-28T06:11:22.200Z,7.71
2022-12-28T06:13:49.891Z,8.02
2022-12-28T06:16:22.877Z,8.09
2022-12-28T06:18:51.305Z,7.84
2022-12-28T06:21:23.798Z,8.17
2022-12-28T06:23:51.793Z,8.22
2022-12-28T06:26:20.556Z,8.21
2022-12-28T06:28:47.995Z,8.14
2022-12-28T06:31:20.407Z,8.28
2022-12-28T06:33:48.330Z,8.06
2022-12-28T06:36:22.066Z,8.32
2022-12-28T06:38:49.762Z,8.49
2022-12-28T06:41:18.460Z,8.49
2022-12-28T06:43:46.458Z,8.50
2022-12-28T06:46:14.268Z,8.67
2022-12-28T06:48:43.705Z,8.57
2022-12-28T06:51:12.082Z,8.63
2022-12-28T06:53:39.485Z,8.54
2022-12-28T06:56:08.808Z,8.33
2022-12-28T06:58:35.541Z,8.58
2022-12-28T07:01:08.291Z,8.67
2022-12-28T07:03:35.864Z,8.58
2022-12-28T07:06:04.799Z,8.70
2022-12-28T07:08:35.643Z,8.35
2022-12-28T07:11:04.993Z,8.46
2022-12-28T07:13:31.990Z,8.94
2022-12-28T07:16:12.238Z,8.69
2022-12-28T07:18:39.677Z,8.73
2022-12-28T07:21:17.436Z,8.84
2022-12-28T07:23:44.685Z,8.76
2022-12-28T07:26:23.398Z,8.66
2022-12-28T07:28:52.939Z,8.78
2022-12-28T07:31:22.411Z,8.93
2022-12-28T07:33:50.799Z,8.89
2022-12-28T07:36:20.139Z,9.07
2022-12-28T07:38:47.801Z,9.04
2022-12-28T07:41:17.196Z,9.02
2022-12-28T07:43:44.513Z,8.99
2022-12-28T07:46:18.239Z,9.00
2022-12-28T07:48:46.039Z,9.02
2022-12-28T07:51:12.644Z,8.97
2022-12-28T07:53:40.545Z,9.22
2022-12-28T07:56:07.786Z,9.14
2022-12-28T07:58:35.018Z,9.12
2022-12-28T08:01:15.729Z,9.35
2022-12-28T08:03:44.947Z,9.25
2022-12-28T08:06:20.142Z,8.99
2022-12-28T08:08:48.534Z,8.90
2022-12-28T08:11:28.923Z,8.89
2022-12-28T08:13:56.830Z,9.02
2022-12-28T08:16:27.921Z,9.16
2022-12-28T08:18:55.229Z,9.14
2022-12-28T08:21:34.462Z,9.01
2022-12-28T08:24:02.066Z,8.99
2022-12-28T08:26:34.341Z,9.09
2022-12-28T08:29:03.123Z,9.12
2022-12-28T08:31:33.252Z,9.23
2022-12-28T08:34:01.981Z,9.29
2022-12-28T08:36:29.059Z,9.32
2022-12-28T08:38:57.451Z,9.36
2022-12-28T08:41:25.912Z,9.30
2022-12-28T08:43:54.323Z,9.21
2022-12-28T08:46:28.890Z,9.43
2022-12-28T08:48:57.658Z,9.58
2022-12-28T08:51:36.845Z,9.58
2022-12-28T08:54:04.265Z,9.31
2022-12-28T08:56:37.402Z,9.59
2022-12-28T08:59:04.740Z,9.22
2022-12-28T09:01:43.255Z,9.29
2022-12-28T09:04:17.376Z,9.12
2022-12-28T09:06:44.470Z,9.44
2022-12-28T09:09:14.111Z,9.50
2022-12-28T09:11:41.502Z,9.68
2022-12-28T09:14:18.528Z,9.48
2022-12-28T09:16:49.163Z,9.72
2022-12-28T09:19:15.852Z,9.66
2022-12-28T09:21:43.148Z,9.82
2022-12-28T09:24:09.882Z,9.88
2022-12-28T09:26:39.599Z,9.36
2022-12-28T09:29:08.919Z,9.73
2022-12-28T09:31:37.383Z,9.86
2022-12-28T09:34:34.860Z,9.81
2022-12-28T09:36:53.014Z,9.82
2022-12-28T09:39:24.491Z,9.86
2022-12-28T09:42:07.812Z,9.89
2022-12-28T09:44:46.680Z,9.58
2022-12-28T09:47:29.295Z,9.91
2022-12-28T09:50:14.490Z,9.97
2022-12-28T09:53:05.632Z,10.12
2022-12-28T09:55:38.439Z,10.05
2022-12-28T09:58:16.422Z,10.34
2022-12-28T10:00:48.986Z,10.24
2022-12-28T10:03:22.841Z,10.28
2022-12-28T10:05:51.377Z,10.27
2022-12-28T10:08:21.472Z,10.20
2022-12-28T10:10:50.429Z,10.35
2022-12-28T10:16:22.816Z,10.34
2022-12-28T10:18:50.149Z,10.36
2022-12-28T10:21:20.496Z,10.00
2022-12-28T10:24:29.258Z,10.39
2022-12-28T10:26:38.396Z,10.34
2022-12-28T10:29:07.832Z,10.05
2022-12-28T10:31:41.617Z,10.19
2022-12-28T10:34:22.760Z,10.12
2022-12-28T10:36:51.188Z,9.93
2022-12-28T10:39:26.036Z,10.16
2022-12-28T10:42:00.194Z,10.30
2022-12-28T10:44:39.466Z,10.46
2022-12-28T10:47:24.069Z,10.50
2022-12-28T10:52:39.882Z,10.87
2022-12-28T10:55:33.043Z,10.58
2022-12-28T10:58:33.731Z,10.45
2022-12-28T11:01:07.346Z,10.54
2022-12-28T11:03:38.174Z,10.41
2022-12-28T11:06:09.445Z,10.43
2022-12-28T11:08:37.055Z,10.31
2022-12-28T11:11:04.015Z,10.57
2022-12-28T11:13:30.665Z,10.57
2022-12-28T11:15:59.351Z,10.64
2022-12-28T11:18:26.273Z,10.69
2022-12-28T11:20:54.187Z,10.60
2022-12-28T11:23:23.999Z,10.73
2022-12-28T11:25:51.096Z,10.72
2022-12-28T11:28:22.498Z,10.54
2022-12-28T11:30:50.963Z,10.35
2022-12-28T11:33:27.113Z,10.72
2022-12-28T11:35:59.519Z,10.97
2022-12-28T11:38:59.083Z,10.57
2022-12-28T11:41:31.770Z,10.86
2022-12-28T11:44:02.894Z,10.82
2022-12-28T11:46:38.324Z,10.86
2022-12-28T11:49:32.695Z,10.95
2022-12-28T11:52:20.118Z,10.86
2022-12-28T11:55:01.310Z,10.74
2022-12-28T11:57:48.378Z,10.63
2022-12-28T12:00:23.286Z,10.91
2022-12-28T12:02:51.610Z,11.02
2022-12-28T12:05:39.496Z,10.83
2022-12-28T12:08:13.879Z,10.99
2022-12-28T12:10:42.447Z,10.91
2022-12-28T12:13:27.621Z,10.85
2022-12-28T12:15:56.932Z,11.24
2022-12-28T12:18:26.850Z,11.08
2022-12-28T12:20:59.395Z,11.03
2022-12-28T12:23:41.405Z,11.02
2022-12-28T12:26:28.182Z,11.10
2022-12-28T12:29:29.192Z,11.13
2022-12-28T12:32:05.343Z,11.31
2022-12-28T12:34:48.783Z,11.05
2022-12-28T12:37:28.873Z,11.24
2022-12-28T12:40:20.671Z,11.11
2022-12-28T12:42:57.459Z,11.11
2022-12-28T12:45:32.896Z,10.91
2022-12-28T12:48:36.633Z,10.78
2022-12-28T12:51:09.606Z,11.36
2022-12-28T12:54:01.072Z,11.36
2022-12-28T12:56:46.566Z,10.77
2022-12-28T12:59:49.905Z,11.09
2022-12-28T13:02:28.818Z,11.14
2022-12-28T13:04:55.715Z,11.32
2022-12-28T13:07:26.639Z,11.28
2022-12-28T13:09:57.748Z,11.11
2022-12-28T13:12:25.549Z,11.18
2022-12-28T13:15:04.869Z,11.22
2022-12-28T13:17:38.080Z,11.14
2022-12-28T13:20:19.208Z,11.22
2022-12-28T13:22:48.202Z,11.34
2022-12-28T13:25:34.594Z,11.37
2022-12-28T13:28:02.872Z,11.51
2022-12-28T13:30:30.718Z,11.57
2022-12-28T13:33:00.350Z,11.59
2022-12-28T13:35:29.456Z,11.48
2022-12-28T13:38:15.211Z,11.67
2022-12-28T13:40:51.397Z,11.46
2022-12-28T13:43:25.099Z,11.64
2022-12-28T13:45:56.528Z,11.33
2022-12-28T13:48:24.182Z,11.43
2022-12-28T13:50:52.780Z,11.50
2022-12-28T13:53:27.855Z,11.44
2022-12-28T13:55:57.257Z,11.40
2022-12-28T13:58:31.455Z,11.53
2022-12-28T14:01:03.239Z,11.73
2022-12-28T14:03:37.663Z,11.69
2022-12-28T14:06:07.573Z,11.65
2022-12-28T14:08:36.692Z,11.56
2022-12-28T14:11:05.219Z,11.34
2022-12-28T14:13:33.595Z,11.29
2022-12-28T14:16:01.958Z,11.57
2022-12-28T14:18:33.554Z,11.30
2022-12-28T14:21:02.000Z,11.43
2022-12-28T14:23:31.679Z,11.17
2022-12-28T14:26:02.107Z,11.48
2022-12-28T14:28:46.358Z,11.46
2022-12-28T14:31:21.658Z,11.42
2022-12-28T14:33:55.889Z,11.07
2022-12-28T14:36:27.214Z,11.32
2022-12-28T14:39:01.080Z,11.51
2022-12-28T14:41:38.983Z,11.39
2022-12-28T14:44:17.758Z,11.61
2022-12-28T14:46:44.539Z,11.41
2022-12-28T14:49:29.400Z,11.61
2022-12-28T14:52:08.108Z,11.52
2022-12-28T14:54:43.573Z,11.49
2022-12-28T14:57:32.647Z,11.70
2022-12-28T15:00:04.205Z,11.63
2022-12-28T15:02:41.434Z,11.61
2022-12-28T15:05:38.214Z,11.66
2022-12-28T15:08:08.135Z,11.63
2022-12-28T15:10:40.152Z,11.66
2022-12-28T15:13:09.228Z,11.55
2022-12-28T15:15:35.897Z,11.66
2022-12-28T15:18:02.738Z,11.91
2022-12-28T15:20:30.035Z,11.59
2022-12-28T15:22:56.859Z,12.29
2022-12-28T15:25:23.627Z,12.11
2022-12-28T15:27:52.278Z,12.18
2022-12-28T15:30:24.352Z,12.38
2022-12-28T15:32:55.485Z,12.42
2022-12-28T15:35:22.307Z,12.35
2022-12-28T15:37:49.274Z,12.27
2022-12-28T15:40:16.146Z,12.33
2022-12-28T15:42:45.181Z,12.36
2022-12-28T15:45:13.076Z,12.30
2022-12-28T15:47:40.146Z,11.75
2022-12-28T15:50:07.768Z,12.16
2022-12-28T15:52:34.749Z,11.91
2022-12-28T15:55:01.768Z,12.11
2022-12-28T15:57:28.645Z,11.98
2022-12-28T15:59:57.815Z,12.06
2022-12-28T16:02:25.024Z,11.99
2022-12-28T16:04:51.859Z,12.29
2022-12-28T16:07:19.444Z,12.25
2022-12-28T16:09:46.701Z,12.25
2022-12-28T16:12:17.689Z,12.41
2022-12-28T16:14:46.758Z,12.05
2022-12-28T16:17:14.410Z,12.29
2022-12-28T16:19:41.668Z,12.28
2022-12-28T16:22:08.503Z,12.15
2022-12-28T16:24:36.288Z,11.96
2022-12-28T16:27:03.462Z,12.22
2022-12-28T16:29:30.175Z,12.05
2022-12-28T16:31:59.025Z,12.16
2022-12-28T16:34:27.855Z,11.93
2022-12-28T16:36:57.135Z,12.29
2022-12-28T16:39:23.844Z,12.16
2022-12-28T16:41:50.588Z,12.34
2022-12-28T16:44:21.014Z,12.19
2022-12-28T16:46:48.566Z,11.98
2022-12-28T16:49:16.404Z,12.02
2022-12-28T16:51:45.275Z,12.24
2022-12-28T16:54:16.334Z,12.39
2022-12-28T16:56:46.802Z,12.22
2022-12-28T16:59:25.418Z,12.32
2022-12-28T17:01:56.464Z,12.14
2022-12-28T17:04:23.290Z,12.25
2022-12-28T17:06:51.662Z,12.54
2022-12-28T17:09:18.720Z,12.50
2022-12-28T17:11:49.905Z,12.50
2022-12-28T17:14:35.974Z,12.25
2022-12-28T17:17:04.599Z,12.05
2022-12-28T17:19:31.253Z,12.50
2022-12-28T17:21:58.000Z,12.27
2022-12-28T17:24:25.019Z,12.27
2022-12-28T17:27:07.260Z,11.85
2022-12-28T17:29:35.538Z,12.24
2022-12-28T17:32:02.258Z,12.14
2022-12-28T17:34:28.977Z,12.23
2022-12-28T17:36:56.174Z,12.32
2022-12-28T17:39:22.794Z,12.44
2022-12-28T17:41:49.523Z,12.31
2022-12-28T17:44:16.070Z,12.15
2022-12-28T17:46:45.399Z,11.85
2022-12-28T17:49:13.709Z,11.99
2022-12-28T17:51:44.363Z,12.42
2022-12-28T17:54:12.261Z,11.78
2022-12-28T17:56:39.907Z,12.18
2022-12-28T17:59:06.645Z,12.15
2022-12-28T18:01:33.401Z,12.09
2022-12-28T18:04:00.166Z,12.15
2022-12-28T18:06:26.821Z,12.25
2022-12-28T18:08:53.450Z,11.90
2022-12-28T18:11:20.122Z,12.32
2022-12-28T18:13:47.903Z,12.19
2022-12-28T18:16:17.514Z,12.04
2022-12-28T18:18:44.176Z,12.22
2022-12-28T18:21:17.978Z,12.25
2022-12-28T18:23:48.803Z,12.25
2022-12-28T18:26:21.386Z,12.26
2022-12-28T18:28:48.071Z,11.93
2022-12-28T18:31:14.951Z,11.93
2022-12-28T18:33:41.824Z,12.11
2022-12-28T18:36:17.301Z,12.07
2022-12-28T18:38:45.990Z,12.07
2022-12-28T18:41:15.325Z,12.24
2022-12-28T18:43:42.831Z,12.31
2022-12-28T18:46:10.334Z,12.12
2022-12-28T18:48:38.869Z,12.23
2022-12-28T18:51:09.178Z,11.86
2022-12-28T18:53:35.936Z,12.04
2022-12-28T18:56:04.126Z,11.96
2022-12-28T18:58:33.574Z,11.78
2022-12-28T19:01:03.426Z,11.74
2022-12-28T19:03:30.340Z,11.99
2022-12-28T19:06:02.884Z,11.81
2022-12-28T19:08:31.333Z,12.10
2022-12-28T19:10:58.070Z,12.15
2022-12-28T19:13:24.654Z,11.87
2022-12-28T19:15:52.279Z,11.83
2022-12-28T19:18:19.291Z,11.85
2022-12-28T19:20:46.134Z,11.77
2022-12-28T19:23:12.778Z,11.99
2022-12-28T19:25:39.365Z,11.95
2022-12-28T19:28:06.625Z,12.11
2022-12-28T19:30:33.298Z,12.00
2022-12-28T19:32:59.943Z,11.48
2022-12-28T19:35:26.584Z,11.42
2022-12-28T19:37:53.222Z,11.74
2022-12-28T19:40:20.111Z,11.87
2022-12-28T19:42:46.807Z,11.81
2022-12-28T19:45:13.422Z,12.07
2022-12-28T19:47:40.019Z,11.83
2022-12-28T19:50:06.969Z,11.69
2022-12-28T19:52:35.430Z,12.04
2022-12-28T19:55:02.085Z,11.57
2022-12-28T19:57:30.063Z,11.97
2022-12-28T19:59:56.672Z,11.64
2022-12-28T20:02:23.326Z,11.69
2022-12-28T20:04:50.020Z,11.43
2022-12-28T20:07:16.589Z,11.56
2022-12-28T20:09:43.248Z,11.63
2022-12-28T20:12:09.856Z,11.95
2022-12-28T20:14:36.638Z,11.61
2022-12-28T20:17:03.263Z,11.27
2022-12-28T20:19:29.870Z,11.40
2022-12-28T20:21:58.835Z,11.85
2022-12-28T20:24:25.440Z,11.57
2022-12-28T20:26:55.101Z,11.18
2022-12-28T20:29:26.821Z,11.61
2022-12-28T20:31:53.478Z,11.27
2022-12-28T20:34:20.408Z,11.69
2022-12-28T20:36:47.260Z,11.72
2022-12-28T20:39:14.159Z,11.55
2022-12-28T20:41:59.417Z,11.51
2022-12-28T20:44:34.904Z,11.74
2022-12-28T20:47:02.431Z,11.77
2022-12-28T20:49:29.799Z,11.49
2022-12-28T20:51:56.416Z,11.29
2022-12-28T20:54:24.007Z,11.76
2022-12-28T20:56:55.185Z,11.64
2022-12-28T20:59:24.393Z,11.58
2022-12-28T21:01:51.345Z,11.54
2022-12-28T21:04:18.054Z,11.64
2022-12-28T21:06:45.857Z,11.38
2022-12-28T21:09:12.597Z,11.29
2022-12-28T21:11:39.274Z,11.46
2022-12-28T21:14:08.386Z,11.78
2022-12-28T21:16:35.200Z,11.51
2022-12-28T21:19:01.832Z,11.51
2022-12-28T21:21:28.532Z,11.09
2022-12-28T21:23:55.201Z,11.17
2022-12-28T21:26:25.850Z,10.97
2022-12-28T21:28:52.527Z,11.59
2022-12-28T21:31:19.382Z,11.42
2022-12-28T21:33:46.072Z,11.52
2022-12-28T21:36:18.475Z,11.46
2022-12-28T21:38:47.455Z,11.33
2022-12-28T21:41:41.697Z,11.27
2022-12-28T21:44:11.521Z,11.20
2022-12-28T21:46:38.955Z,11.20
2022-12-28T21:49:06.484Z,11.44
2022-12-28T21:51:38.305Z,11.03
2022-12-28T21:54:20.151Z,10.71
2022-12-28T21:56:52.659Z,10.95
2022-12-28T21:59:20.934Z,11.24
2022-12-28T22:02:06.240Z,11.42
2022-12-28T22:04:54.391Z,11.30
2022-12-28T22:07:25.783Z,10.78
2022-12-28T22:10:10.726Z,11.29
2022-12-28T22:12:37.925Z,11.20
2022-12-28T22:15:25.791Z,11.20
2022-12-28T22:18:03.876Z,11.22
2022-12-28T22:20:31.448Z,11.10
2022-12-28T22:23:00.634Z,11.23
2022-12-28T22:25:29.133Z,11.22
2022-12-28T22:27:56.240Z,10.83
2022-12-28T22:30:23.350Z,10.97
2022-12-28T22:32:49.956Z,11.01
2022-12-28T22:35:16.876Z,11.15
2022-12-28T22:37:43.816Z,11.08
2022-12-28T22:40:11.948Z,11.26
2022-12-28T22:42:43.734Z,11.22
2022-12-28T22:45:15.202Z,11.08
2022-12-28T22:47:42.863Z,11.38
2022-12-28T22:50:12.720Z,11.52
2022-12-28T22:52:39.746Z,11.27
2022-12-28T22:55:07.152Z,11.31
2022-12-28T22:57:34.006Z,11.40
2022-12-28T23:00:00.676Z,11.39
2022-12-28T23:02:30.187Z,11.17
2022-12-28T23:04:56.945Z,11.27
2022-12-28T23:07:23.584Z,11.42
2022-12-28T23:09:50.159Z,11.46
2022-12-28T23:12:16.737Z,11.50
2022-12-28T23:15:01.473Z,11.43
2022-12-28T23:17:28.289Z,11.51
2022-12-28T23:20:13.589Z,11.69
2022-12-28T23:22:58.280Z,11.29
2022-12-28T23:25:44.054Z,11.56
2022-12-28T23:28:13.656Z,11.51
2022-12-28T23:30:44.126Z,11.37
2022-12-28T23:33:11.148Z,11.47
2022-12-28T23:35:37.719Z,11.43
2022-12-28T23:38:04.352Z,11.06
2022-12-28T23:40:31.003Z,11.59
2022-12-28T23:42:57.679Z,11.58
2022-12-28T23:45:24.926Z,11.60
2022-12-28T23:47:54.736Z,11.40
2022-12-28T23:50:21.789Z,11.80
2022-12-28T23:52:48.391Z,11.41
2022-12-28T23:55:15.532Z,11.60
2022-12-28T23:57:42.202Z,11.91
